sensor_id;sensor_type;location;lat;lon;timestamp;P1;durP1;ratioP1;P2;durP2;ratioP2
54123;SDS011;55741;53.252;5.788;2023-10-31T00:01:10;9.48;;;2.53;;
54123;SDS011;55741;53.252;5.788;2023-10-31T00:03:36;8.00;;;2.20;;
54123;SDS011;55741;53.252;5.788;2023-10-31T00:06:02;14.00;;;2.00;;
54123;SDS011;55741;53.252;5.788;2023-10-31T00:08:28;12.20;;;2.00;;
54123;SDS011;55741;53.252;5.788;2023-10-31T00:10:56;8.27;;;2.15;;
54123;SDS011;55741;53.252;5.788;2023-10-31T00:13:21;7.20;;;1.70;;
54123;SDS011;55741;53.252;5.788;2023-10-31T00:15:47;6.25;;;1.92;;
54123;SDS011;55741;53.252;5.788;2023-10-31T00:18:13;8.02;;;1.67;;
54123;SDS011;55741;53.252;5.788;2023-10-31T00:20:41;6.70;;;3.00;;
54123;SDS011;55741;53.252;5.788;2023-10-31T00:23:07;10.13;;;2.42;;
54123;SDS011;55741;53.252;5.788;2023-10-31T00:25:33;11.65;;;3.53;;
54123;SDS011;55741;53.252;5.788;2023-10-31T00:27:58;8.55;;;3.53;;
54123;SDS011;55741;53.252;5.788;2023-10-31T00:30:24;11.05;;;4.30;;
54123;SDS011;55741;53.252;5.788;2023-10-31T00:32:51;9.52;;;4.90;;
54123;SDS011;55741;53.252;5.788;2023-10-31T00:35:17;7.90;;;4.68;;
54123;SDS011;55741;53.252;5.788;2023-10-31T00:37:43;15.18;;;5.72;;
54123;SDS011;55741;53.252;5.788;2023-10-31T00:40:09;15.13;;;5.95;;
54123;SDS011;55741;53.252;5.788;2023-10-31T00:42:39;11.10;;;6.43;;
54123;SDS011;55741;53.252;5.788;2023-10-31T00:45:07;12.25;;;5.95;;
54123;SDS011;55741;53.252;5.788;2023-10-31T00:47:34;16.65;;;6.15;;
54123;SDS011;55741;53.252;5.788;2023-10-31T00:50:00;15.10;;;5.40;;
54123;SDS011;55741;53.252;5.788;2023-10-31T00:52:26;13.13;;;5.20;;
54123;SDS011;55741;53.252;5.788;2023-10-31T00:54:52;10.55;;;4.45;;
54123;SDS011;55741;53.252;5.788;2023-10-31T00:57:18;15.15;;;4.93;;
54123;SDS011;55741;53.252;5.788;2023-10-31T00:59:43;17.95;;;4.20;;
54123;SDS011;55741;53.252;5.788;2023-10-31T01:02:09;21.52;;;4.60;;
54123;SDS011;55741;53.252;5.788;2023-10-31T01:04:35;14.32;;;3.60;;
54123;SDS011;55741;53.252;5.788;2023-10-31T01:07:02;16.77;;;3.47;;
54123;SDS011;55741;53.252;5.788;2023-10-31T01:09:28;15.93;;;3.70;;
54123;SDS011;55741;53.252;5.788;2023-10-31T01:11:55;18.50;;;3.15;;
54123;SDS011;55741;53.252;5.788;2023-10-31T01:14:21;25.10;;;4.47;;
54123;SDS011;55741;53.252;5.788;2023-10-31T01:16:47;14.50;;;3.53;;
54123;SDS011;55741;53.252;5.788;2023-10-31T01:19:13;18.05;;;4.10;;
54123;SDS011;55741;53.252;5.788;2023-10-31T01:21:39;17.25;;;3.30;;
54123;SDS011;55741;53.252;5.788;2023-10-31T01:24:05;19.67;;;3.35;;
54123;SDS011;55741;53.252;5.788;2023-10-31T01:26:31;18.83;;;3.15;;
54123;SDS011;55741;53.252;5.788;2023-10-31T01:28:57;17.98;;;3.60;;
54123;SDS011;55741;53.252;5.788;2023-10-31T01:31:23;18.05;;;3.35;;
54123;SDS011;55741;53.252;5.788;2023-10-31T01:33:49;18.25;;;3.85;;
54123;SDS011;55741;53.252;5.788;2023-10-31T01:36:15;16.20;;;3.53;;
54123;SDS011;55741;53.252;5.788;2023-10-31T01:38:41;17.05;;;4.00;;
54123;SDS011;55741;53.252;5.788;2023-10-31T01:41:07;18.92;;;3.55;;
54123;SDS011;55741;53.252;5.788;2023-10-31T01:43:33;15.57;;;3.15;;
54123;SDS011;55741;53.252;5.788;2023-10-31T01:46:00;18.90;;;3.85;;
54123;SDS011;55741;53.252;5.788;2023-10-31T01:48:27;14.23;;;4.00;;
54123;SDS011;55741;53.252;5.788;2023-10-31T01:50:55;19.38;;;3.83;;
54123;SDS011;55741;53.252;5.788;2023-10-31T01:53:25;19.92;;;4.18;;
54123;SDS011;55741;53.252;5.788;2023-10-31T01:55:52;14.65;;;3.90;;
54123;SDS011;55741;53.252;5.788;2023-10-31T01:58:21;19.45;;;4.47;;
54123;SDS011;55741;53.252;5.788;2023-10-31T02:00:54;14.75;;;3.40;;
54123;SDS011;55741;53.252;5.788;2023-10-31T02:03:20;17.80;;;4.03;;
54123;SDS011;55741;53.252;5.788;2023-10-31T02:05:46;17.27;;;3.65;;
54123;SDS011;55741;53.252;5.788;2023-10-31T02:08:12;12.00;;;3.05;;
54123;SDS011;55741;53.252;5.788;2023-10-31T02:10:38;11.77;;;3.25;;
54123;SDS011;55741;53.252;5.788;2023-10-31T02:13:16;14.32;;;3.90;;
54123;SDS011;55741;53.252;5.788;2023-10-31T02:15:43;20.67;;;5.00;;
54123;SDS011;55741;53.252;5.788;2023-10-31T02:18:09;22.75;;;4.50;;
54123;SDS011;55741;53.252;5.788;2023-10-31T02:20:36;19.45;;;4.03;;
54123;SDS011;55741;53.252;5.788;2023-10-31T02:23:02;21.27;;;4.50;;
54123;SDS011;55741;53.252;5.788;2023-10-31T02:25:29;23.13;;;5.10;;
54123;SDS011;55741;53.252;5.788;2023-10-31T02:27:55;20.00;;;4.07;;
54123;SDS011;55741;53.252;5.788;2023-10-31T02:30:21;26.25;;;4.20;;
54123;SDS011;55741;53.252;5.788;2023-10-31T02:32:47;16.80;;;3.60;;
54123;SDS011;55741;53.252;5.788;2023-10-31T02:35:13;17.27;;;3.88;;
54123;SDS011;55741;53.252;5.788;2023-10-31T02:37:40;17.52;;;3.72;;
54123;SDS011;55741;53.252;5.788;2023-10-31T02:40:06;18.48;;;4.10;;
54123;SDS011;55741;53.252;5.788;2023-10-31T02:42:33;18.80;;;4.32;;
54123;SDS011;55741;53.252;5.788;2023-10-31T02:44:59;21.02;;;3.60;;
54123;SDS011;55741;53.252;5.788;2023-10-31T02:47:24;15.57;;;4.20;;
54123;SDS011;55741;53.252;5.788;2023-10-31T02:49:50;15.20;;;3.50;;
54123;SDS011;55741;53.252;5.788;2023-10-31T02:52:16;19.92;;;4.00;;
54123;SDS011;55741;53.252;5.788;2023-10-31T02:54:42;10.50;;;3.28;;
54123;SDS011;55741;53.252;5.788;2023-10-31T02:57:09;12.52;;;3.30;;
54123;SDS011;55741;53.252;5.788;2023-10-31T02:59:35;12.13;;;3.63;;
54123;SDS011;55741;53.252;5.788;2023-10-31T03:02:01;18.27;;;4.22;;
54123;SDS011;55741;53.252;5.788;2023-10-31T03:04:27;10.32;;;3.35;;
54123;SDS011;55741;53.252;5.788;2023-10-31T03:06:52;15.07;;;3.50;;
54123;SDS011;55741;53.252;5.788;2023-10-31T03:09:18;9.43;;;3.10;;
54123;SDS011;55741;53.252;5.788;2023-10-31T03:11:44;12.98;;;3.17;;
54123;SDS011;55741;53.252;5.788;2023-10-31T03:14:11;12.27;;;3.17;;
54123;SDS011;55741;53.252;5.788;2023-10-31T03:16:37;11.07;;;3.20;;
54123;SDS011;55741;53.252;5.788;2023-10-31T03:19:04;20.23;;;3.38;;
54123;SDS011;55741;53.252;5.788;2023-10-31T03:21:30;13.65;;;3.10;;
54123;SDS011;55741;53.252;5.788;2023-10-31T03:23:56;19.83;;;3.33;;
54123;SDS011;55741;53.252;5.788;2023-10-31T03:26:23;14.07;;;2.60;;
54123;SDS011;55741;53.252;5.788;2023-10-31T03:28:48;16.83;;;3.13;;
54123;SDS011;55741;53.252;5.788;2023-10-31T03:31:15;13.77;;;2.70;;
54123;SDS011;55741;53.252;5.788;2023-10-31T03:33:41;14.00;;;3.83;;
54123;SDS011;55741;53.252;5.788;2023-10-31T03:36:08;14.32;;;2.85;;
54123;SDS011;55741;53.252;5.788;2023-10-31T03:38:34;10.88;;;2.53;;
54123;SDS011;55741;53.252;5.788;2023-10-31T03:41:01;14.68;;;2.95;;
54123;SDS011;55741;53.252;5.788;2023-10-31T03:43:27;14.75;;;3.50;;
54123;SDS011;55741;53.252;5.788;2023-10-31T03:45:53;8.52;;;2.22;;
54123;SDS011;55741;53.252;5.788;2023-10-31T03:48:19;11.57;;;2.00;;
54123;SDS011;55741;53.252;5.788;2023-10-31T03:50:45;4.35;;;1.52;;
54123;SDS011;55741;53.252;5.788;2023-10-31T03:53:11;10.80;;;1.83;;
54123;SDS011;55741;53.252;5.788;2023-10-31T03:55:37;8.25;;;2.05;;
54123;SDS011;55741;53.252;5.788;2023-10-31T03:58:03;9.40;;;2.10;;
54123;SDS011;55741;53.252;5.788;2023-10-31T04:00:31;8.18;;;2.25;;
54123;SDS011;55741;53.252;5.788;2023-10-31T04:02:56;9.80;;;1.95;;
54123;SDS011;55741;53.252;5.788;2023-10-31T04:05:22;8.43;;;1.48;;
54123;SDS011;55741;53.252;5.788;2023-10-31T04:07:49;10.77;;;2.05;;
54123;SDS011;55741;53.252;5.788;2023-10-31T04:10:15;9.75;;;1.85;;
54123;SDS011;55741;53.252;5.788;2023-10-31T04:12:41;7.97;;;2.22;;
54123;SDS011;55741;53.252;5.788;2023-10-31T04:15:09;9.15;;;2.33;;
54123;SDS011;55741;53.252;5.788;2023-10-31T04:17:35;9.57;;;2.50;;
54123;SDS011;55741;53.252;5.788;2023-10-31T04:20:01;8.80;;;2.25;;
54123;SDS011;55741;53.252;5.788;2023-10-31T04:22:27;8.35;;;1.88;;
54123;SDS011;55741;53.252;5.788;2023-10-31T04:24:53;5.93;;;2.15;;
54123;SDS011;55741;53.252;5.788;2023-10-31T04:27:19;10.85;;;1.73;;
54123;SDS011;55741;53.252;5.788;2023-10-31T04:29:45;7.45;;;1.60;;
54123;SDS011;55741;53.252;5.788;2023-10-31T04:32:11;6.40;;;1.65;;
54123;SDS011;55741;53.252;5.788;2023-10-31T04:34:37;5.93;;;1.30;;
54123;SDS011;55741;53.252;5.788;2023-10-31T04:37:02;6.65;;;1.85;;
54123;SDS011;55741;53.252;5.788;2023-10-31T04:39:29;10.45;;;1.88;;
54123;SDS011;55741;53.252;5.788;2023-10-31T04:41:55;7.65;;;2.40;;
54123;SDS011;55741;53.252;5.788;2023-10-31T04:44:21;7.28;;;1.90;;
54123;SDS011;55741;53.252;5.788;2023-10-31T04:46:47;11.82;;;2.65;;
54123;SDS011;55741;53.252;5.788;2023-10-31T04:49:13;9.93;;;2.00;;
54123;SDS011;55741;53.252;5.788;2023-10-31T04:51:39;10.73;;;2.20;;
54123;SDS011;55741;53.252;5.788;2023-10-31T04:54:05;10.00;;;2.03;;
54123;SDS011;55741;53.252;5.788;2023-10-31T04:56:31;11.80;;;2.00;;
54123;SDS011;55741;53.252;5.788;2023-10-31T04:58:56;11.82;;;2.72;;
54123;SDS011;55741;53.252;5.788;2023-10-31T05:01:22;12.73;;;2.33;;
54123;SDS011;55741;53.252;5.788;2023-10-31T05:03:49;12.55;;;2.45;;
54123;SDS011;55741;53.252;5.788;2023-10-31T05:06:19;11.20;;;2.13;;
54123;SDS011;55741;53.252;5.788;2023-10-31T05:08:48;12.30;;;2.47;;
54123;SDS011;55741;53.252;5.788;2023-10-31T05:11:17;11.85;;;3.10;;
54123;SDS011;55741;53.252;5.788;2023-10-31T05:13:46;10.15;;;2.25;;
54123;SDS011;55741;53.252;5.788;2023-10-31T05:16:13;15.02;;;3.28;;
54123;SDS011;55741;53.252;5.788;2023-10-31T05:18:39;19.70;;;4.78;;
54123;SDS011;55741;53.252;5.788;2023-10-31T05:21:05;10.82;;;3.78;;
54123;SDS011;55741;53.252;5.788;2023-10-31T05:23:31;9.05;;;2.60;;
54123;SDS011;55741;53.252;5.788;2023-10-31T05:25:57;12.93;;;3.58;;
54123;SDS011;55741;53.252;5.788;2023-10-31T05:28:23;10.82;;;4.50;;
54123;SDS011;55741;53.252;5.788;2023-10-31T05:30:49;11.15;;;2.25;;
54123;SDS011;55741;53.252;5.788;2023-10-31T05:33:15;8.70;;;2.53;;
54123;SDS011;55741;53.252;5.788;2023-10-31T05:35:41;6.90;;;2.45;;
54123;SDS011;55741;53.252;5.788;2023-10-31T05:38:07;8.55;;;2.88;;
54123;SDS011;55741;53.252;5.788;2023-10-31T05:40:33;8.95;;;3.25;;
54123;SDS011;55741;53.252;5.788;2023-10-31T05:43:02;8.07;;;2.65;;
54123;SDS011;55741;53.252;5.788;2023-10-31T05:45:29;13.20;;;3.20;;
54123;SDS011;55741;53.252;5.788;2023-10-31T05:47:55;7.57;;;2.30;;
54123;SDS011;55741;53.252;5.788;2023-10-31T05:50:21;12.57;;;3.13;;
54123;SDS011;55741;53.252;5.788;2023-10-31T05:52:47;12.18;;;2.15;;
54123;SDS011;55741;53.252;5.788;2023-10-31T05:55:13;12.20;;;3.45;;
54123;SDS011;55741;53.252;5.788;2023-10-31T05:57:39;10.90;;;2.85;;
54123;SDS011;55741;53.252;5.788;2023-10-31T06:00:06;12.07;;;3.28;;
54123;SDS011;55741;53.252;5.788;2023-10-31T06:02:32;9.27;;;3.50;;
54123;SDS011;55741;53.252;5.788;2023-10-31T06:04:58;18.80;;;7.88;;
54123;SDS011;55741;53.252;5.788;2023-10-31T06:07:24;32.78;;;13.85;;
54123;SDS011;55741;53.252;5.788;2023-10-31T06:09:50;25.42;;;14.38;;
54123;SDS011;55741;53.252;5.788;2023-10-31T06:12:16;19.88;;;7.00;;
54123;SDS011;55741;53.252;5.788;2023-10-31T06:14:42;12.25;;;5.65;;
54123;SDS011;55741;53.252;5.788;2023-10-31T06:17:10;19.15;;;8.68;;
54123;SDS011;55741;53.252;5.788;2023-10-31T06:19:36;13.25;;;3.60;;
54123;SDS011;55741;53.252;5.788;2023-10-31T06:22:02;12.60;;;2.50;;
54123;SDS011;55741;53.252;5.788;2023-10-31T06:24:28;8.55;;;2.00;;
54123;SDS011;55741;53.252;5.788;2023-10-31T06:26:54;6.43;;;1.40;;
54123;SDS011;55741;53.252;5.788;2023-10-31T06:29:20;10.25;;;1.48;;
54123;SDS011;55741;53.252;5.788;2023-10-31T06:31:46;10.77;;;1.30;;
54123;SDS011;55741;53.252;5.788;2023-10-31T06:34:12;8.57;;;1.58;;
54123;SDS011;55741;53.252;5.788;2023-10-31T06:36:38;8.05;;;1.50;;
54123;SDS011;55741;53.252;5.788;2023-10-31T06:39:04;10.80;;;1.88;;
54123;SDS011;55741;53.252;5.788;2023-10-31T06:41:30;5.82;;;1.02;;
54123;SDS011;55741;53.252;5.788;2023-10-31T06:43:56;5.13;;;1.20;;
54123;SDS011;55741;53.252;5.788;2023-10-31T06:46:21;8.30;;;1.38;;
54123;SDS011;55741;53.252;5.788;2023-10-31T06:48:47;5.75;;;0.80;;
54123;SDS011;55741;53.252;5.788;2023-10-31T06:51:13;5.65;;;1.10;;
54123;SDS011;55741;53.252;5.788;2023-10-31T06:53:39;3.03;;;0.82;;
54123;SDS011;55741;53.252;5.788;2023-10-31T06:56:05;5.82;;;1.05;;
54123;SDS011;55741;53.252;5.788;2023-10-31T06:58:31;4.88;;;1.10;;
54123;SDS011;55741;53.252;5.788;2023-10-31T07:00:57;6.85;;;1.10;;
54123;SDS011;55741;53.252;5.788;2023-10-31T07:03:24;8.25;;;1.17;;
54123;SDS011;55741;53.252;5.788;2023-10-31T07:05:50;4.25;;;1.00;;
54123;SDS011;55741;53.252;5.788;2023-10-31T07:08:17;5.22;;;0.90;;
54123;SDS011;55741;53.252;5.788;2023-10-31T07:10:43;6.07;;;1.27;;
54123;SDS011;55741;53.252;5.788;2023-10-31T07:13:09;8.48;;;1.25;;
54123;SDS011;55741;53.252;5.788;2023-10-31T07:15:35;6.47;;;1.00;;
54123;SDS011;55741;53.252;5.788;2023-10-31T07:18:05;4.38;;;0.95;;
54123;SDS011;55741;53.252;5.788;2023-10-31T07:20:32;5.75;;;0.80;;
54123;SDS011;55741;53.252;5.788;2023-10-31T07:22:58;6.43;;;1.10;;
54123;SDS011;55741;53.252;5.788;2023-10-31T07:25:24;3.70;;;1.25;;
54123;SDS011;55741;53.252;5.788;2023-10-31T07:27:50;8.20;;;1.20;;
54123;SDS011;55741;53.252;5.788;2023-10-31T07:30:16;6.43;;;1.10;;
54123;SDS011;55741;53.252;5.788;2023-10-31T07:32:42;6.80;;;1.10;;
54123;SDS011;55741;53.252;5.788;2023-10-31T07:35:08;3.17;;;0.95;;
54123;SDS011;55741;53.252;5.788;2023-10-31T07:37:34;5.88;;;0.95;;
54123;SDS011;55741;53.252;5.788;2023-10-31T07:40:00;6.15;;;0.90;;
54123;SDS011;55741;53.252;5.788;2023-10-31T07:42:25;6.78;;;1.00;;
54123;SDS011;55741;53.252;5.788;2023-10-31T07:44:51;10.80;;;1.38;;
54123;SDS011;55741;53.252;5.788;2023-10-31T07:47:17;9.95;;;1.50;;
54123;SDS011;55741;53.252;5.788;2023-10-31T07:49:43;7.75;;;1.98;;
54123;SDS011;55741;53.252;5.788;2023-10-31T07:52:09;10.98;;;1.63;;
54123;SDS011;55741;53.252;5.788;2023-10-31T07:54:35;14.50;;;1.88;;
54123;SDS011;55741;53.252;5.788;2023-10-31T07:57:05;14.32;;;2.15;;
54123;SDS011;55741;53.252;5.788;2023-10-31T07:59:34;17.48;;;2.55;;
54123;SDS011;55741;53.252;5.788;2023-10-31T08:02:00;11.40;;;1.90;;
54123;SDS011;55741;53.252;5.788;2023-10-31T08:04:26;16.20;;;1.67;;
54123;SDS011;55741;53.252;5.788;2023-10-31T08:06:53;10.98;;;1.83;;
54123;SDS011;55741;53.252;5.788;2023-10-31T08:09:19;11.45;;;2.28;;
54123;SDS011;55741;53.252;5.788;2023-10-31T08:11:45;12.48;;;2.10;;
54123;SDS011;55741;53.252;5.788;2023-10-31T08:14:11;9.55;;;1.83;;
54123;SDS011;55741;53.252;5.788;2023-10-31T08:16:37;15.18;;;2.13;;
54123;SDS011;55741;53.252;5.788;2023-10-31T08:19:04;16.42;;;3.58;;
54123;SDS011;55741;53.252;5.788;2023-10-31T08:21:30;9.55;;;1.90;;
54123;SDS011;55741;53.252;5.788;2023-10-31T08:24:01;10.77;;;2.15;;
54123;SDS011;55741;53.252;5.788;2023-10-31T08:26:28;13.85;;;2.72;;
54123;SDS011;55741;53.252;5.788;2023-10-31T08:28:55;8.30;;;1.85;;
54123;SDS011;55741;53.252;5.788;2023-10-31T08:31:21;9.82;;;2.08;;
54123;SDS011;55741;53.252;5.788;2023-10-31T08:33:47;10.65;;;1.75;;
54123;SDS011;55741;53.252;5.788;2023-10-31T08:36:13;12.45;;;2.05;;
54123;SDS011;55741;53.252;5.788;2023-10-31T08:38:38;10.27;;;1.60;;
54123;SDS011;55741;53.252;5.788;2023-10-31T08:41:05;9.63;;;1.52;;
54123;SDS011;55741;53.252;5.788;2023-10-31T08:43:31;10.60;;;2.08;;
54123;SDS011;55741;53.252;5.788;2023-10-31T08:45:56;10.07;;;1.50;;
54123;SDS011;55741;53.252;5.788;2023-10-31T08:55:49;10.93;;;1.80;;
54123;SDS011;55741;53.252;5.788;2023-10-31T08:58:15;9.50;;;1.70;;
54123;SDS011;55741;53.252;5.788;2023-10-31T09:00:43;8.35;;;1.38;;
54123;SDS011;55741;53.252;5.788;2023-10-31T09:03:09;9.93;;;1.95;;
54123;SDS011;55741;53.252;5.788;2023-10-31T09:05:35;13.13;;;1.60;;
54123;SDS011;55741;53.252;5.788;2023-10-31T09:08:01;6.63;;;1.75;;
54123;SDS011;55741;53.252;5.788;2023-10-31T09:10:27;11.98;;;2.05;;
54123;SDS011;55741;53.252;5.788;2023-10-31T09:12:53;7.40;;;1.50;;
54123;SDS011;55741;53.252;5.788;2023-10-31T09:15:19;8.20;;;1.70;;
54123;SDS011;55741;53.252;5.788;2023-10-31T09:17:46;8.75;;;1.73;;
54123;SDS011;55741;53.252;5.788;2023-10-31T09:20:14;8.88;;;1.52;;
54123;SDS011;55741;53.252;5.788;2023-10-31T09:22:40;9.55;;;1.70;;
54123;SDS011;55741;53.252;5.788;2023-10-31T09:25:06;8.00;;;1.50;;
54123;SDS011;55741;53.252;5.788;2023-10-31T09:27:32;7.72;;;1.23;;
54123;SDS011;55741;53.252;5.788;2023-10-31T09:29:58;7.93;;;1.63;;
54123;SDS011;55741;53.252;5.788;2023-10-31T09:32:23;8.48;;;1.50;;
54123;SDS011;55741;53.252;5.788;2023-10-31T09:34:49;12.77;;;1.75;;
54123;SDS011;55741;53.252;5.788;2023-10-31T09:37:15;6.78;;;1.17;;
54123;SDS011;55741;53.252;5.788;2023-10-31T09:39:42;5.03;;;1.23;;
54123;SDS011;55741;53.252;5.788;2023-10-31T09:42:08;6.40;;;1.85;;
54123;SDS011;55741;53.252;5.788;2023-10-31T09:44:33;9.15;;;1.50;;
54123;SDS011;55741;53.252;5.788;2023-10-31T09:47:00;7.05;;;1.52;;
54123;SDS011;55741;53.252;5.788;2023-10-31T09:49:26;15.57;;;1.42;;
54123;SDS011;55741;53.252;5.788;2023-10-31T09:51:53;9.75;;;1.63;;
54123;SDS011;55741;53.252;5.788;2023-10-31T09:54:19;7.90;;;1.48;;
54123;SDS011;55741;53.252;5.788;2023-10-31T09:56:46;11.70;;;1.73;;
54123;SDS011;55741;53.252;5.788;2023-10-31T09:59:13;7.90;;;1.42;;
54123;SDS011;55741;53.252;5.788;2023-10-31T10:01:40;9.25;;;1.80;;
54123;SDS011;55741;53.252;5.788;2023-10-31T10:04:07;10.82;;;2.05;;
54123;SDS011;55741;53.252;5.788;2023-10-31T10:06:33;7.38;;;1.38;;
54123;SDS011;55741;53.252;5.788;2023-10-31T10:08:59;7.15;;;1.60;;
54123;SDS011;55741;53.252;5.788;2023-10-31T10:11:28;7.03;;;1.45;;
54123;SDS011;55741;53.252;5.788;2023-10-31T10:13:54;11.35;;;2.40;;
54123;SDS011;55741;53.252;5.788;2023-10-31T10:16:28;6.90;;;1.67;;
54123;SDS011;55741;53.252;5.788;2023-10-31T10:19:14;8.80;;;1.92;;
54123;SDS011;55741;53.252;5.788;2023-10-31T10:21:50;16.80;;;1.92;;
54123;SDS011;55741;53.252;5.788;2023-10-31T10:24:21;10.93;;;1.95;;
54123;SDS011;55741;53.252;5.788;2023-10-31T10:26:48;10.85;;;2.13;;
54123;SDS011;55741;53.252;5.788;2023-10-31T10:29:15;9.30;;;1.58;;
54123;SDS011;55741;53.252;5.788;2023-10-31T10:31:41;9.32;;;1.92;;
54123;SDS011;55741;53.252;5.788;2023-10-31T10:34:10;6.20;;;1.45;;
54123;SDS011;55741;53.252;5.788;2023-10-31T10:36:40;11.25;;;1.20;;
54123;SDS011;55741;53.252;5.788;2023-10-31T10:39:09;8.23;;;1.50;;
54123;SDS011;55741;53.252;5.788;2023-10-31T10:41:35;4.13;;;1.40;;
54123;SDS011;55741;53.252;5.788;2023-10-31T10:44:04;5.40;;;1.92;;
54123;SDS011;55741;53.252;5.788;2023-10-31T10:46:34;11.35;;;2.05;;
54123;SDS011;55741;53.252;5.788;2023-10-31T10:49:05;6.60;;;1.50;;
54123;SDS011;55741;53.252;5.788;2023-10-31T10:51:40;11.82;;;2.25;;
54123;SDS011;55741;53.252;5.788;2023-10-31T10:54:15;6.95;;;1.50;;
54123;SDS011;55741;53.252;5.788;2023-10-31T10:56:59;7.72;;;1.67;;
54123;SDS011;55741;53.252;5.788;2023-10-31T10:59:36;9.45;;;1.90;;
54123;SDS011;55741;53.252;5.788;2023-10-31T11:04:33;9.43;;;1.95;;
54123;SDS011;55741;53.252;5.788;2023-10-31T11:06:59;8.77;;;1.88;;
54123;SDS011;55741;53.252;5.788;2023-10-31T11:09:27;9.02;;;1.70;;
54123;SDS011;55741;53.252;5.788;2023-10-31T11:11:53;8.00;;;1.95;;
54123;SDS011;55741;53.252;5.788;2023-10-31T11:14:19;7.28;;;1.75;;
54123;SDS011;55741;53.252;5.788;2023-10-31T11:16:48;7.82;;;1.60;;
54123;SDS011;55741;53.252;5.788;2023-10-31T11:19:17;12.57;;;1.60;;
54123;SDS011;55741;53.252;5.788;2023-10-31T11:21:53;11.68;;;2.30;;
54123;SDS011;55741;53.252;5.788;2023-10-31T11:24:30;8.18;;;1.33;;
54123;SDS011;55741;53.252;5.788;2023-10-31T11:27:01;7.93;;;1.63;;
54123;SDS011;55741;53.252;5.788;2023-10-31T11:29:28;7.75;;;1.55;;
54123;SDS011;55741;53.252;5.788;2023-10-31T11:31:56;11.35;;;2.83;;
54123;SDS011;55741;53.252;5.788;2023-10-31T11:34:23;11.98;;;2.00;;
54123;SDS011;55741;53.252;5.788;2023-10-31T11:36:51;8.32;;;2.15;;
54123;SDS011;55741;53.252;5.788;2023-10-31T11:39:18;9.32;;;1.65;;
54123;SDS011;55741;53.252;5.788;2023-10-31T11:41:54;9.90;;;1.83;;
54123;SDS011;55741;53.252;5.788;2023-10-31T11:44:27;9.10;;;1.65;;
54123;SDS011;55741;53.252;5.788;2023-10-31T11:46:53;9.73;;;1.55;;
54123;SDS011;55741;53.252;5.788;2023-10-31T11:49:52;6.50;;;1.38;;
54123;SDS011;55741;53.252;5.788;2023-10-31T11:52:17;7.55;;;1.75;;
54123;SDS011;55741;53.252;5.788;2023-10-31T11:54:43;7.50;;;1.35;;
54123;SDS011;55741;53.252;5.788;2023-10-31T11:57:10;6.68;;;1.40;;
54123;SDS011;55741;53.252;5.788;2023-10-31T11:59:36;7.57;;;1.30;;
54123;SDS011;55741;53.252;5.788;2023-10-31T12:02:13;6.88;;;2.40;;
54123;SDS011;55741;53.252;5.788;2023-10-31T12:04:39;4.80;;;1.40;;
54123;SDS011;55741;53.252;5.788;2023-10-31T12:07:05;5.25;;;2.00;;
54123;SDS011;55741;53.252;5.788;2023-10-31T12:09:31;10.43;;;2.10;;
54123;SDS011;55741;53.252;5.788;2023-10-31T12:11:57;6.45;;;1.70;;
54123;SDS011;55741;53.252;5.788;2023-10-31T12:14:23;9.98;;;2.67;;
54123;SDS011;55741;53.252;5.788;2023-10-31T12:16:49;8.18;;;2.13;;
54123;SDS011;55741;53.252;5.788;2023-10-31T12:19:15;7.90;;;2.45;;
54123;SDS011;55741;53.252;5.788;2023-10-31T12:21:44;9.48;;;2.38;;
54123;SDS011;55741;53.252;5.788;2023-10-31T12:24:16;10.25;;;3.05;;
54123;SDS011;55741;53.252;5.788;2023-10-31T12:26:45;6.88;;;2.03;;
54123;SDS011;55741;53.252;5.788;2023-10-31T12:29:12;10.20;;;2.42;;
54123;SDS011;55741;53.252;5.788;2023-10-31T12:31:43;9.45;;;1.58;;
54123;SDS011;55741;53.252;5.788;2023-10-31T12:34:10;5.68;;;1.20;;
54123;SDS011;55741;53.252;5.788;2023-10-31T12:36:37;6.13;;;1.50;;
54123;SDS011;55741;53.252;5.788;2023-10-31T12:39:04;9.18;;;1.30;;
54123;SDS011;55741;53.252;5.788;2023-10-31T12:41:32;5.35;;;1.20;;
54123;SDS011;55741;53.252;5.788;2023-10-31T12:44:00;2.67;;;1.10;;
54123;SDS011;55741;53.252;5.788;2023-10-31T12:46:29;5.30;;;1.27;;
54123;SDS011;55741;53.252;5.788;2023-10-31T12:48:59;4.47;;;1.48;;
54123;SDS011;55741;53.252;5.788;2023-10-31T12:51:25;2.90;;;0.75;;
54123;SDS011;55741;53.252;5.788;2023-10-31T12:53:51;6.38;;;1.17;;
54123;SDS011;55741;53.252;5.788;2023-10-31T12:59:07;6.40;;;1.38;;
54123;SDS011;55741;53.252;5.788;2023-10-31T13:01:36;5.20;;;1.40;;
54123;SDS011;55741;53.252;5.788;2023-10-31T13:04:07;6.78;;;1.85;;
54123;SDS011;55741;53.252;5.788;2023-10-31T13:06:33;4.43;;;1.50;;
54123;SDS011;55741;53.252;5.788;2023-10-31T13:08:59;3.58;;;1.13;;
54123;SDS011;55741;53.252;5.788;2023-10-31T13:11:30;4.25;;;1.30;;
54123;SDS011;55741;53.252;5.788;2023-10-31T13:13:57;5.10;;;1.92;;
54123;SDS011;55741;53.252;5.788;2023-10-31T13:16:25;4.50;;;1.83;;
54123;SDS011;55741;53.252;5.788;2023-10-31T13:18:54;5.78;;;1.20;;
54123;SDS011;55741;53.252;5.788;2023-10-31T13:21:20;5.53;;;1.38;;
54123;SDS011;55741;53.252;5.788;2023-10-31T13:23:46;7.00;;;1.20;;
54123;SDS011;55741;53.252;5.788;2023-10-31T13:26:13;5.85;;;1.08;;
54123;SDS011;55741;53.252;5.788;2023-10-31T13:28:41;4.20;;;1.30;;
54123;SDS011;55741;53.252;5.788;2023-10-31T13:31:07;6.60;;;1.88;;
54123;SDS011;55741;53.252;5.788;2023-10-31T13:33:33;3.22;;;1.00;;
54123;SDS011;55741;53.252;5.788;2023-10-31T13:36:00;6.05;;;1.20;;
54123;SDS011;55741;53.252;5.788;2023-10-31T13:38:26;4.32;;;0.90;;
54123;SDS011;55741;53.252;5.788;2023-10-31T13:40:52;4.55;;;0.95;;
54123;SDS011;55741;53.252;5.788;2023-10-31T13:43:18;4.72;;;1.08;;
54123;SDS011;55741;53.252;5.788;2023-10-31T13:45:44;8.75;;;1.40;;
54123;SDS011;55741;53.252;5.788;2023-10-31T13:48:09;3.72;;;1.20;;
54123;SDS011;55741;53.252;5.788;2023-10-31T13:50:36;3.47;;;1.10;;
54123;SDS011;55741;53.252;5.788;2023-10-31T13:53:02;4.47;;;1.10;;
54123;SDS011;55741;53.252;5.788;2023-10-31T13:55:31;10.40;;;1.30;;
54123;SDS011;55741;53.252;5.788;2023-10-31T13:57:56;5.03;;;1.08;;
54123;SDS011;55741;53.252;5.788;2023-10-31T14:00:22;4.55;;;1.25;;
54123;SDS011;55741;53.252;5.788;2023-10-31T14:02:48;3.35;;;1.00;;
54123;SDS011;55741;53.252;5.788;2023-10-31T14:05:14;3.63;;;1.00;;
54123;SDS011;55741;53.252;5.788;2023-10-31T14:07:41;4.57;;;1.25;;
54123;SDS011;55741;53.252;5.788;2023-10-31T14:10:07;2.92;;;1.00;;
54123;SDS011;55741;53.252;5.788;2023-10-31T14:12:33;6.60;;;1.17;;
54123;SDS011;55741;53.252;5.788;2023-10-31T14:14:59;4.70;;;1.00;;
54123;SDS011;55741;53.252;5.788;2023-10-31T14:17:25;9.20;;;0.98;;
54123;SDS011;55741;53.252;5.788;2023-10-31T14:19:51;6.65;;;1.23;;
54123;SDS011;55741;53.252;5.788;2023-10-31T14:22:17;3.85;;;1.20;;
54123;SDS011;55741;53.252;5.788;2023-10-31T14:24:43;4.72;;;1.15;;
54123;SDS011;55741;53.252;5.788;2023-10-31T14:27:09;7.15;;;2.15;;
54123;SDS011;55741;53.252;5.788;2023-10-31T14:29:36;3.47;;;1.25;;
54123;SDS011;55741;53.252;5.788;2023-10-31T14:32:06;5.22;;;1.55;;
54123;SDS011;55741;53.252;5.788;2023-10-31T14:34:35;5.10;;;1.67;;
54123;SDS011;55741;53.252;5.788;2023-10-31T14:37:01;5.82;;;0.93;;
54123;SDS011;55741;53.252;5.788;2023-10-31T14:39:27;4.50;;;1.30;;
54123;SDS011;55741;53.252;5.788;2023-10-31T14:41:54;3.92;;;1.13;;
54123;SDS011;55741;53.252;5.788;2023-10-31T14:44:20;4.70;;;1.50;;
54123;SDS011;55741;53.252;5.788;2023-10-31T14:46:46;5.97;;;1.35;;
54123;SDS011;55741;53.252;5.788;2023-10-31T14:49:12;3.47;;;1.63;;
54123;SDS011;55741;53.252;5.788;2023-10-31T14:51:38;7.40;;;1.65;;